sensor_id;sensor_type;location;lat;lon;timestamp;pressure;altitude;pressure_sealevel;temperature;humidity
37066;BME280;22981;43.080;25.550;2023-02-19T00:01:18;99629.80;;;6.52;57.06
37066;BME280;22981;43.080;25.550;2023-02-19T00:03:49;99629.66;;;6.49;57.13
37066;BME280;22981;43.080;25.550;2023-02-19T00:06:17;99625.88;;;6.48;57.17
37066;BME280;22981;43.080;25.550;2023-02-19T00:08:44;99628.02;;;6.48;57.21
37066;BME280;22981;43.080;25.550;2023-02-19T00:11:12;99628.70;;;6.46;57.27
37066;BME280;22981;43.080;25.550;2023-02-19T00:13:40;99634.42;;;6.43;57.37
37066;BME280;22981;43.080;25.550;2023-02-19T00:16:14;99637.70;;;6.45;57.43
37066;BME280;22981;43.080;25.550;2023-02-19T00:18:41;99641.23;;;6.42;57.38
37066;BME280;22981;43.080;25.550;2023-02-19T00:21:09;99639.91;;;6.31;57.48
37066;BME280;22981;43.080;25.550;2023-02-19T00:23:35;99635.06;;;6.20;57.56
37066;BME280;22981;43.080;25.550;2023-02-19T00:26:03;99645.30;;;6.12;57.74
37066;BME280;22981;43.080;25.550;2023-02-19T00:28:30;99639.92;;;6.06;57.87
37066;BME280;22981;43.080;25.550;2023-02-19T00:31:57;99637.81;;;6.01;57.96
37066;BME280;22981;43.080;25.550;2023-02-19T00:33:34;99633.57;;;5.96;58.05
37066;BME280;22981;43.080;25.550;2023-02-19T00:36:01;99629.63;;;5.92;58.17
37066;BME280;22981;43.080;25.550;2023-02-19T00:38:29;99625.59;;;5.96;58.22
37066;BME280;22981;43.080;25.550;2023-02-19T00:40:57;99618.91;;;6.00;58.18
37066;BME280;22981;43.080;25.550;2023-02-19T00:43:25;99618.85;;;6.04;58.13
37066;BME280;22981;43.080;25.550;2023-02-19T00:45:52;99615.62;;;6.09;58.09
37066;BME280;22981;43.080;25.550;2023-02-19T00:48:18;99616.97;;;5.94;58.14
37066;BME280;22981;43.080;25.550;2023-02-19T00:50:45;99618.16;;;5.76;58.33
37066;BME280;22981;43.080;25.550;2023-02-19T00:53:12;99617.16;;;5.63;58.53
37066;BME280;22981;43.080;25.550;2023-02-19T00:55:39;99612.80;;;5.51;58.66
37066;BME280;22981;43.080;25.550;2023-02-19T00:58:06;99604.34;;;5.37;58.78
37066;BME280;22981;43.080;25.550;2023-02-19T01:00:32;99608.77;;;5.25;58.99
37066;BME280;22981;43.080;25.550;2023-02-19T01:02:59;99606.03;;;5.19;59.08
37066;BME280;22981;43.080;25.550;2023-02-19T01:05:26;99598.61;;;5.14;59.11
37066;BME280;22981;43.080;25.550;2023-02-19T01:19:25;99585.49;;;5.32;59.12
37066;BME280;22981;43.080;25.550;2023-02-19T01:21:52;99590.45;;;5.31;59.21
37066;BME280;22981;43.080;25.550;2023-02-19T01:24:19;99589.28;;;5.33;59.24
37066;BME280;22981;43.080;25.550;2023-02-19T01:26:45;99589.86;;;5.39;59.23
37066;BME280;22981;43.080;25.550;2023-02-19T01:29:12;99587.51;;;5.44;59.18
37066;BME280;22981;43.080;25.550;2023-02-19T01:31:39;99579.98;;;5.33;59.08
37066;BME280;22981;43.080;25.550;2023-02-19T01:34:08;99580.03;;;5.14;59.37
37066;BME280;22981;43.080;25.550;2023-02-19T01:36:35;99579.10;;;5.07;59.58
37066;BME280;22981;43.080;25.550;2023-02-19T01:39:03;99581.28;;;5.03;59.70
37066;BME280;22981;43.080;25.550;2023-02-19T01:41:30;99581.60;;;5.05;59.75
37066;BME280;22981;43.080;25.550;2023-02-19T01:43:59;99585.42;;;5.06;59.73
37066;BME280;22981;43.080;25.550;2023-02-19T01:46:38;99588.55;;;5.10;59.71
37066;BME280;22981;43.080;25.550;2023-02-19T01:49:09;99595.30;;;5.12;59.69
37066;BME280;22981;43.080;25.550;2023-02-19T01:51:38;99592.45;;;5.14;59.66
37066;BME280;22981;43.080;25.550;2023-02-19T01:54:05;99590.45;;;5.16;59.63
37066;BME280;22981;43.080;25.550;2023-02-19T01:56:33;99589.87;;;5.10;59.69
37066;BME280;22981;43.080;25.550;2023-02-19T01:59:01;99600.02;;;5.06;59.77
37066;BME280;22981;43.080;25.550;2023-02-19T02:01:28;99592.22;;;5.05;59.82
37066;BME280;22981;43.080;25.550;2023-02-19T02:03:55;99599.67;;;5.05;59.85
37066;BME280;22981;43.080;25.550;2023-02-19T02:06:22;99604.98;;;5.05;59.90
37066;BME280;22981;43.080;25.550;2023-02-19T02:08:50;99612.97;;;5.01;59.99
37066;BME280;22981;43.080;25.550;2023-02-19T02:11:35;99615.03;;;4.95;60.09
37066;BME280;22981;43.080;25.550;2023-02-19T02:14:03;99618.22;;;4.90;60.17
37066;BME280;22981;43.080;25.550;2023-02-19T02:16:40;99606.59;;;4.91;60.21
37066;BME280;22981;43.080;25.550;2023-02-19T02:21:56;99607.89;;;4.95;60.26
37066;BME280;22981;43.080;25.550;2023-02-19T02:27:16;99611.48;;;5.02;60.28
37066;BME280;22981;43.080;25.550;2023-02-19T02:32:25;99623.08;;;5.06;60.28
37066;BME280;22981;43.080;25.550;2023-02-19T02:34:53;99629.75;;;5.01;60.33
37066;BME280;22981;43.080;25.550;2023-02-19T02:37:21;99630.38;;;4.85;60.54
37066;BME280;22981;43.080;25.550;2023-02-19T02:39:49;99632.44;;;4.74;60.75
37066;BME280;22981;43.080;25.550;2023-02-19T02:42:16;99634.61;;;4.71;60.87
37066;BME280;22981;43.080;25.550;2023-02-19T02:44:55;99639.59;;;4.70;60.89
37066;BME280;22981;43.080;25.550;2023-02-19T02:47:58;99638.12;;;4.71;60.87
37066;BME280;22981;43.080;25.550;2023-02-19T02:50:12;99633.45;;;4.73;60.84
37066;BME280;22981;43.080;25.550;2023-02-19T02:52:39;99630.48;;;4.72;60.83
37066;BME280;22981;43.080;25.550;2023-02-19T02:55:24;99633.84;;;4.62;60.94
37066;BME280;22981;43.080;25.550;2023-02-19T02:57:53;99629.32;;;4.48;61.12
37066;BME280;22981;43.080;25.550;2023-02-19T03:00:20;99635.16;;;4.43;61.25
37066;BME280;22981;43.080;25.550;2023-02-19T03:02:47;99634.14;;;4.44;61.24
37066;BME280;22981;43.080;25.550;2023-02-19T03:05:15;99646.42;;;4.45;61.25
37066;BME280;22981;43.080;25.550;2023-02-19T03:08:07;99643.77;;;4.45;61.27
37066;BME280;22981;43.080;25.550;2023-02-19T03:11:20;99649.09;;;4.41;61.30
37066;BME280;22981;43.080;25.550;2023-02-19T03:13:42;99648.09;;;4.42;61.25
37066;BME280;22981;43.080;25.550;2023-02-19T03:16:02;99650.73;;;4.42;61.19
37066;BME280;22981;43.080;25.550;2023-02-19T03:18:48;99647.77;;;4.41;61.22
37066;BME280;22981;43.080;25.550;2023-02-19T03:21:33;99653.25;;;4.36;61.31
37066;BME280;22981;43.080;25.550;2023-02-19T03:24:03;99649.34;;;4.23;61.52
37066;BME280;22981;43.080;25.550;2023-02-19T03:26:41;99656.47;;;4.23;61.63
37066;BME280;22981;43.080;25.550;2023-02-19T03:29:09;99659.12;;;4.23;61.62
37066;BME280;22981;43.080;25.550;2023-02-19T03:31:55;99656.45;;;4.27;61.63
37066;BME280;22981;43.080;25.550;2023-02-19T03:34:24;99659.47;;;4.24;61.67
37066;BME280;22981;43.080;25.550;2023-02-19T03:36:57;99651.56;;;4.16;61.76
37066;BME280;22981;43.080;25.550;2023-02-19T03:39:23;99655.20;;;4.11;61.89
37066;BME280;22981;43.080;25.550;2023-02-19T03:52:13;99646.62;;;4.09;61.79
37066;BME280;22981;43.080;25.550;2023-02-19T03:54:46;99641.66;;;4.06;61.74
37066;BME280;22981;43.080;25.550;2023-02-19T03:57:14;99641.54;;;3.99;61.81
37066;BME280;22981;43.080;25.550;2023-02-19T03:59:41;99652.79;;;3.97;61.82
37066;BME280;22981;43.080;25.550;2023-02-19T04:04:42;99642.23;;;3.85;62.02
37066;BME280;22981;43.080;25.550;2023-02-19T04:07:08;99642.25;;;3.81;62.14
37066;BME280;22981;43.080;25.550;2023-02-19T04:09:35;99637.97;;;3.80;62.20
37066;BME280;22981;43.080;25.550;2023-02-19T04:12:04;99637.63;;;3.83;62.17
37066;BME280;22981;43.080;25.550;2023-02-19T04:14:35;99634.46;;;3.87;62.19
37066;BME280;22981;43.080;25.550;2023-02-19T04:17:04;99636.25;;;3.95;62.07
37066;BME280;22981;43.080;25.550;2023-02-19T04:19:33;99634.09;;;3.98;62.00
37066;BME280;22981;43.080;25.550;2023-02-19T04:21:59;99632.27;;;3.99;62.01
37066;BME280;22981;43.080;25.550;2023-02-19T04:24:28;99636.88;;;4.01;61.99
37066;BME280;22981;43.080;25.550;2023-02-19T04:26:55;99635.34;;;4.07;61.98
37066;BME280;22981;43.080;25.550;2023-02-19T04:29:22;99634.77;;;4.23;62.05
37066;BME280;22981;43.080;25.550;2023-02-19T04:31:48;99632.71;;;4.61;61.87
37066;BME280;22981;43.080;25.550;2023-02-19T04:34:15;99636.19;;;5.03;61.26
37066;BME280;22981;43.080;25.550;2023-02-19T04:36:42;99637.48;;;5.41;60.98
37066;BME280;22981;43.080;25.550;2023-02-19T04:39:09;99639.58;;;5.90;60.60
37066;BME280;22981;43.080;25.550;2023-02-19T04:41:36;99636.99;;;6.37;59.95
37066;BME280;22981;43.080;25.550;2023-02-19T04:44:03;99639.67;;;6.80;59.42
37066;BME280;22981;43.080;25.550;2023-02-19T04:46:30;99645.42;;;7.15;58.74
37066;BME280;22981;43.080;25.550;2023-02-19T04:48:56;99641.61;;;7.42;58.28
37066;BME280;22981;43.080;25.550;2023-02-19T04:51:23;99652.20;;;7.63;57.94
37066;BME280;22981;43.080;25.550;2023-02-19T04:53:50;99656.06;;;7.78;57.70
37066;BME280;22981;43.080;25.550;2023-02-19T04:56:17;99657.39;;;7.95;57.48
37066;BME280;22981;43.080;25.550;2023-02-19T04:58:44;99656.66;;;8.15;57.20
37066;BME280;22981;43.080;25.550;2023-02-19T05:01:11;99659.69;;;8.29;56.99
37066;BME280;22981;43.080;25.550;2023-02-19T05:03:38;99667.97;;;8.41;56.83
37066;BME280;22981;43.080;25.550;2023-02-19T05:06:05;99667.48;;;8.48;56.67
37066;BME280;22981;43.080;25.550;2023-02-19T05:08:32;99671.80;;;8.56;56.61
37066;BME280;22981;43.080;25.550;2023-02-19T05:10:59;99679.53;;;8.61;56.53
37066;BME280;22981;43.080;25.550;2023-02-19T05:13:27;99688.27;;;8.66;56.45
37066;BME280;22981;43.080;25.550;2023-02-19T05:15:54;99688.99;;;8.70;56.37
37066;BME280;22981;43.080;25.550;2023-02-19T05:18:21;99690.02;;;8.76;56.33
37066;BME280;22981;43.080;25.550;2023-02-19T05:20:49;99688.37;;;8.82;56.23
37066;BME280;22981;43.080;25.550;2023-02-19T05:23:16;99691.69;;;8.84;56.19
37066;BME280;22981;43.080;25.550;2023-02-19T05:25:42;99705.64;;;8.86;56.15
37066;BME280;22981;43.080;25.550;2023-02-19T05:28:09;99707.48;;;8.85;56.17
37066;BME280;22981;43.080;25.550;2023-02-19T05:30:43;99710.80;;;8.87;56.17
37066;BME280;22981;43.080;25.550;2023-02-19T05:33:10;99719.31;;;8.93;56.11
37066;BME280;22981;43.080;25.550;2023-02-19T05:35:45;99723.02;;;8.99;56.03
37066;BME280;22981;43.080;25.550;2023-02-19T05:38:12;99724.08;;;9.05;55.94
37066;BME280;22981;43.080;25.550;2023-02-19T05:40:38;99723.25;;;9.11;55.84
37066;BME280;22981;43.080;25.550;2023-02-19T05:43:06;99732.83;;;9.22;55.67
37066;BME280;22981;43.080;25.550;2023-02-19T05:45:33;99734.78;;;9.31;55.54
37066;BME280;22981;43.080;25.550;2023-02-19T05:48:00;99737.86;;;9.41;55.40
37066;BME280;22981;43.080;25.550;2023-02-19T05:50:28;99737.95;;;9.50;55.26
37066;BME280;22981;43.080;25.550;2023-02-19T05:52:55;99739.30;;;9.57;55.16
37066;BME280;22981;43.080;25.550;2023-02-19T05:55:21;99749.57;;;9.67;55.04
37066;BME280;22981;43.080;25.550;2023-02-19T05:57:48;99751.52;;;9.75;54.88
37066;BME280;22981;43.080;25.550;2023-02-19T06:00:16;99758.81;;;9.84;54.72
37066;BME280;22981;43.080;25.550;2023-02-19T06:02:43;99767.98;;;9.79;54.72
37066;BME280;22981;43.080;25.550;2023-02-19T06:05:10;99765.51;;;9.71;54.72
37066;BME280;22981;43.080;25.550;2023-02-19T06:07:36;99770.44;;;9.54;54.91
37066;BME280;22981;43.080;25.550;2023-02-19T06:10:08;99774.97;;;9.40;55.13
37066;BME280;22981;43.080;25.550;2023-02-19T06:12:35;99777.22;;;9.37;55.21
37066;BME280;22981;43.080;25.550;2023-02-19T06:15:02;99785.97;;;9.35;55.24
37066;BME280;22981;43.080;25.550;2023-02-19T06:17:29;99790.16;;;9.33;55.29
37066;BME280;22981;43.080;25.550;2023-02-19T06:19:56;99790.58;;;9.37;55.31
37066;BME280;22981;43.080;25.550;2023-02-19T06:22:22;99786.29;;;9.42;55.11
37066;BME280;22981;43.080;25.550;2023-02-19T06:24:49;99789.16;;;9.47;54.93
37066;BME280;22981;43.080;25.550;2023-02-19T06:27:16;99794.00;;;9.48;54.82
37066;BME280;22981;43.080;25.550;2023-02-19T06:29:43;99809.81;;;9.49;54.88
37066;BME280;22981;43.080;25.550;2023-02-19T06:32:09;99805.00;;;9.56;54.88
37066;BME280;22981;43.080;25.550;2023-02-19T06:34:36;99802.84;;;9.62;54.84
37066;BME280;22981;43.080;25.550;2023-02-19T06:37:03;99813.11;;;9.71;54.77
37066;BME280;22981;43.080;25.550;2023-02-19T06:39:30;99811.47;;;9.84;54.65
37066;BME280;22981;43.080;25.550;2023-02-19T06:41:57;99809.30;;;9.96;54.44
37066;BME280;22981;43.080;25.550;2023-02-19T06:44:24;99810.52;;;10.14;54.21
37066;BME280;22981;43.080;25.550;2023-02-19T06:46:53;99806.62;;;10.30;54.01
37066;BME280;22981;43.080;25.550;2023-02-19T06:49:19;99800.08;;;10.48;53.85
37066;BME280;22981;43.080;25.550;2023-02-19T06:51:46;99798.28;;;10.64;53.63
37066;BME280;22981;43.080;25.550;2023-02-19T06:54:12;99798.22;;;10.77;53.61
37066;BME280;22981;43.080;25.550;2023-02-19T06:56:40;99799.80;;;10.92;53.62
37066;BME280;22981;43.080;25.550;2023-02-19T06:59:08;99800.97;;;11.09;53.46
37066;BME280;22981;43.080;25.550;2023-02-19T07:01:35;99799.30;;;11.31;53.24
37066;BME280;22981;43.080;25.550;2023-02-19T07:04:02;99796.46;;;11.50;53.04
37066;BME280;22981;43.080;25.550;2023-02-19T07:06:29;99794.69;;;11.69;52.59
37066;BME280;22981;43.080;25.550;2023-02-19T07:08:56;99790.12;;;11.86;52.58
37066;BME280;22981;43.080;25.550;2023-02-19T07:11:24;99788.98;;;12.00;52.38
37066;BME280;22981;43.080;25.550;2023-02-19T07:13:54;99792.64;;;12.15;52.22
37066;BME280;22981;43.080;25.550;2023-02-19T07:16:21;99791.83;;;12.33;52.14
37066;BME280;22981;43.080;25.550;2023-02-19T07:18:48;99793.63;;;12.57;51.87
37066;BME280;22981;43.080;25.550;2023-02-19T07:21:16;99788.91;;;12.80;51.58
37066;BME280;22981;43.080;25.550;2023-02-19T07:23:43;99789.84;;;13.04;51.26
37066;BME280;22981;43.080;25.550;2023-02-19T07:26:11;99785.62;;;13.26;50.95
37066;BME280;22981;43.080;25.550;2023-02-19T07:28:42;99779.71;;;13.48;50.73
37066;BME280;22981;43.080;25.550;2023-02-19T07:31:09;99777.24;;;13.67;50.14
37066;BME280;22981;43.080;25.550;2023-02-19T07:33:36;99776.03;;;13.84;49.89
37066;BME280;22981;43.080;25.550;2023-02-19T07:36:05;99779.31;;;13.98;49.67
37066;BME280;22981;43.080;25.550;2023-02-19T07:38:31;99776.12;;;14.13;49.09
37066;BME280;22981;43.080;25.550;2023-02-19T07:40:59;99779.98;;;14.28;48.93
37066;BME280;22981;43.080;25.550;2023-02-19T07:43:27;99787.06;;;14.44;48.48
37066;BME280;22981;43.080;25.550;2023-02-19T07:45:54;99789.28;;;14.59;48.17
37066;BME280;22981;43.080;25.550;2023-02-19T07:48:21;99789.79;;;14.70;47.89
37066;BME280;22981;43.080;25.550;2023-02-19T07:50:54;99788.91;;;14.81;47.70
37066;BME280;22981;43.080;25.550;2023-02-19T07:53:21;99786.44;;;14.91;47.40
37066;BME280;22981;43.080;25.550;2023-02-19T07:55:48;99788.44;;;14.98;47.06
37066;BME280;22981;43.080;25.550;2023-02-19T07:58:16;99790.56;;;15.11;47.10
37066;BME280;22981;43.080;25.550;2023-02-19T08:00:43;99794.31;;;15.24;46.57
37066;BME280;22981;43.080;25.550;2023-02-19T08:03:10;99785.30;;;15.33;46.50
37066;BME280;22981;43.080;25.550;2023-02-19T08:05:38;99783.89;;;15.44;46.50
37066;BME280;22981;43.080;25.550;2023-02-19T08:08:11;99780.06;;;15.57;46.23
37066;BME280;22981;43.080;25.550;2023-02-19T08:10:33;99778.70;;;15.71;45.35
37066;BME280;22981;43.080;25.550;2023-02-19T08:13:17;99791.36;;;15.85;45.13
37066;BME280;22981;43.080;25.550;2023-02-19T08:15:48;99798.05;;;15.99;45.19
37066;BME280;22981;43.080;25.550;2023-02-19T08:18:15;99793.38;;;16.12;44.68
37066;BME280;22981;43.080;25.550;2023-02-19T08:20:42;99790.58;;;16.23;44.07
37066;BME280;22981;43.080;25.550;2023-02-19T08:23:09;99780.98;;;16.35;44.10
37066;BME280;22981;43.080;25.550;2023-02-19T08:25:37;99792.23;;;16.46;43.98
37066;BME280;22981;43.080;25.550;2023-02-19T08:28:05;99775.91;;;16.58;44.00
37066;BME280;22981;43.080;25.550;2023-02-19T08:30:32;99772.28;;;16.72;43.82
37066;BME280;22981;43.080;25.550;2023-02-19T08:32:59;99773.81;;;16.87;43.74
37066;BME280;22981;43.080;25.550;2023-02-19T08:35:26;99782.97;;;17.06;43.36
37066;BME280;22981;43.080;25.550;2023-02-19T08:37:56;99776.57;;;17.17;43.00
37066;BME280;22981;43.080;25.550;2023-02-19T08:40:24;99781.75;;;17.21;42.83
37066;BME280;22981;43.080;25.550;2023-02-19T08:42:51;99788.59;;;17.26;42.67
37066;BME280;22981;43.080;25.550;2023-02-19T08:45:17;99781.64;;;17.35;42.62
37066;BME280;22981;43.080;25.550;2023-02-19T08:47:44;99774.18;;;17.47;42.36
37066;BME280;22981;43.080;25.550;2023-02-19T08:50:11;99768.57;;;17.57;41.94
37066;BME280;22981;43.080;25.550;2023-02-19T08:52:38;99767.52;;;17.63;42.03
37066;BME280;22981;43.080;25.550;2023-02-19T08:55:05;99767.86;;;17.71;41.90
37066;BME280;22981;43.080;25.550;2023-02-19T08:57:34;99768.20;;;17.75;41.91
37066;BME280;22981;43.080;25.550;2023-02-19T09:00:00;99769.05;;;17.81;41.86
37066;BME280;22981;43.080;25.550;2023-02-19T09:02:27;99765.37;;;17.94;41.50
37066;BME280;22981;43.080;25.550;2023-02-19T09:04:54;99765.42;;;18.07;41.43
37066;BME280;22981;43.080;25.550;2023-02-19T09:07:21;99754.34;;;18.09;41.34
37066;BME280;22981;43.080;25.550;2023-02-19T09:09:48;99760.36;;;18.16;41.29
37066;BME280;22981;43.080;25.550;2023-02-19T09:12:15;99761.19;;;18.24;41.31
37066;BME280;22981;43.080;25.550;2023-02-19T09:14:41;99761.53;;;18.35;41.09
37066;BME280;22981;43.080;25.550;2023-02-19T09:17:08;99750.98;;;18.41;40.86
37066;BME280;22981;43.080;25.550;2023-02-19T09:19:35;99750.52;;;18.55;40.60
37066;BME280;22981;43.080;25.550;2023-02-19T09:22:02;99749.19;;;18.65;40.62
37066;BME280;22981;43.080;25.550;2023-02-19T09:24:29;99733.28;;;18.81;40.45
37066;BME280;22981;43.080;25.550;2023-02-19T09:26:56;99740.89;;;18.92;40.37
37066;BME280;22981;43.080;25.550;2023-02-19T09:29:24;99731.72;;;19.11;40.17
37066;BME280;22981;43.080;25.550;2023-02-19T09:31:54;99734.98;;;19.20;39.90
37066;BME280;22981;43.080;25.550;2023-02-19T09:34:19;99733.35;;;19.30;39.81
37066;BME280;22981;43.080;25.550;2023-02-19T09:36:47;99730.36;;;19.31;39.56
37066;BME280;22981;43.080;25.550;2023-02-19T09:39:14;99739.86;;;19.31;39.36
37066;BME280;22981;43.080;25.550;2023-02-19T09:41:51;99727.13;;;19.37;39.30
37066;BME280;22981;43.080;25.550;2023-02-19T09:44:24;99724.94;;;19.39;39.34
37066;BME280;22981;43.080;25.550;2023-02-19T09:46:48;99720.34;;;19.49;39.43
37066;BME280;22981;43.080;25.550;2023-02-19T09:49:16;99716.53;;;19.58;39.14
37066;BME280;22981;43.080;25.550;2023-02-19T09:51:45;99720.36;;;19.62;39.20
37066;BME280;22981;43.080;25.550;2023-02-19T09:54:13;99730.12;;;19.76;39.19
37066;BME280;22981;43.080;25.550;2023-02-19T09:56:39;99707.83;;;19.84;38.77
37066;BME280;22981;43.080;25.550;2023-02-19T09:59:06;99719.50;;;19.92;38.59
37066;BME280;22981;43.080;25.550;2023-02-19T10:01:36;99715.69;;;19.93;38.46
37066;BME280;22981;43.080;25.550;2023-02-19T10:04:03;99709.17;;;19.97;38.32
37066;BME280;22981;43.080;25.550;2023-02-19T10:06:30;99703.47;;;19.96;38.34
37066;BME280;22981;43.080;25.550;2023-02-19T10:09:32;99698.84;;;19.96;38.53
37066;BME280;22981;43.080;25.550;2023-02-19T10:11:33;99692.83;;;20.10;38.40
37066;BME280;22981;43.080;25.550;2023-02-19T10:14:11;99685.98;;;20.22;37.87
37066;BME280;22981;43.080;25.550;2023-02-19T10:16:34;99685.38;;;20.33;37.84
37066;BME280;22981;43.080;25.550;2023-02-19T10:19:03;99679.11;;;20.40;37.39
37066;BME280;22981;43.080;25.550;2023-02-19T10:21:33;99687.27;;;20.43;37.17
37066;BME280;22981;43.080;25.550;2023-02-19T10:24:01;99665.25;;;20.39;36.96
37066;BME280;22981;43.080;25.550;2023-02-19T10:26:31;99659.52;;;20.43;37.19
37066;BME280;22981;43.080;25.550;2023-02-19T10:29:00;99660.81;;;20.59;37.29
37066;BME280;22981;43.080;25.550;2023-02-19T10:31:31;99649.34;;;20.67;37.13
37066;BME280;22981;43.080;25.550;2023-02-19T10:33:59;99647.47;;;20.65;37.09
37066;BME280;22981;43.080;25.550;2023-02-19T10:38:56;99638.03;;;20.49;37.09
37066;BME280;22981;43.080;25.550;2023-02-19T10:41:24;99638.28;;;20.56;37.14
37066;BME280;22981;43.080;25.550;2023-02-19T10:49:03;99641.99;;;20.67;36.25
37066;BME280;22981;43.080;25.550;2023-02-19T10:51:32;99636.30;;;20.66;36.21
37066;BME280;22981;43.080;25.550;2023-02-19T10:54:03;99586.91;;;20.41;36.13
37066;BME280;22981;43.080;25.550;2023-02-19T10:56:30;99636.25;;;20.71;36.07
37066;BME280;22981;43.080;25.550;2023-02-19T10:59:14;99619.67;;;20.70;35.76
37066;BME280;22981;43.080;25.550;2023-02-19T11:04:22;99624.68;;;20.53;35.89
37066;BME280;22981;43.080;25.550;2023-02-19T11:06:49;99614.36;;;20.53;36.13
37066;BME280;22981;43.080;25.550;2023-02-19T11:09:59;99622.23;;;20.46;36.01
37066;BME280;22981;43.080;25.550;2023-02-19T11:11:49;99621.71;;;20.44;36.21
37066;BME280;22981;43.080;25.550;2023-02-19T11:14:17;99622.63;;;20.24;36.17
37066;BME280;22981;43.080;25.550;2023-02-19T11:16:49;99631.44;;;19.98;36.45
37066;BME280;22981;43.080;25.550;2023-02-19T11:19:23;99620.34;;;19.85;36.60
37066;BME280;22981;43.080;25.550;2023-02-19T11:21:46;99624.98;;;19.76;36.80
37066;BME280;22981;43.080;25.550;2023-02-19T11:26:53;99622.57;;;19.65;36.56
37066;BME280;22981;43.080;25.550;2023-02-19T11:29:21;99621.22;;;19.47;36.72
37066;BME280;22981;43.080;25.550;2023-02-19T11:31:49;99624.23;;;19.33;37.12
37066;BME280;22981;43.080;25.550;2023-02-19T11:36:46;99616.38;;;19.23;37.36
37066;BME280;22981;43.080;25.550;2023-02-19T11:39:31;99617.73;;;19.16;37.43
37066;BME280;22981;43.080;25.550;2023-02-19T11:44:49;99613.67;;;19.03;37.78
37066;BME280;22981;43.080;25.550;2023-02-19T11:50:12;99612.05;;;19.15;37.68
37066;BME280;22981;43.080;25.550;2023-02-19T11:58:13;99600.34;;;19.37;37.59
37066;BME280;22981;43.080;25.550;2023-02-19T12:00:40;99608.70;;;19.56;37.44
37066;BME280;22981;43.080;25.550;2023-02-19T12:24:01;99588.64;;;19.57;37.28
37066;BME280;22981;43.080;25.550;2023-02-19T12:29:23;99587.52;;;19.76;37.18
37066;BME280;22981;43.080;25.550;2023-02-19T12:31:54;99578.48;;;19.93;36.99
37066;BME280;22981;43.080;25.550;2023-02-19T12:39:43;99561.63;;;20.43;36.24
37066;BME280;22981;43.080;25.550;2023-02-19T12:42:10;99567.08;;;20.38;36.12
37066;BME280;22981;43.080;25.550;2023-02-19T12:44:41;99554.66;;;20.27;36.22
37066;BME280;22981;43.080;25.550;2023-02-19T12:47:12;99552.05;;;20.07;36.35
37066;BME280;22981;43.080;25.550;2023-02-19T12:49:38;99549.36;;;19.99;36.46
37066;BME280;22981;43.080;25.550;2023-02-19T13:05:41;99525.46;;;20.48;36.24
37066;BME280;22981;43.080;25.550;2023-02-19T13:08:19;99522.05;;;20.66;36.12
37066;BME280;22981;43.080;25.550;2023-02-19T13:13:24;99518.66;;;20.82;35.83
37066;BME280;22981;43.080;25.550;2023-02-19T13:15:49;99514.57;;;20.82;35.68
37066;BME280;22981;43.080;25.550;2023-02-19T13:18:22;99512.62;;;20.85;35.68
37066;BME280;22981;43.080;25.550;2023-02-19T13:20:44;99502.83;;;20.87;35.71
37066;BME280;22981;43.080;25.550;2023-02-19T13:23:15;99494.59;;;20.94;35.69
37066;BME280;22981;43.080;25.550;2023-02-19T13:28:49;99495.91;;;20.68;35.88
37066;BME280;22981;43.080;25.550;2023-02-19T13:33:47;99493.44;;;19.90;36.77
37066;BME280;22981;43.080;25.550;2023-02-19T13:38:42;99489.52;;;19.57;37.15
37066;BME280;22981;43.080;25.550;2023-02-19T13:43:57;99481.86;;;19.74;37.07
37066;BME280;22981;43.080;25.550;2023-02-19T13:46:25;99477.69;;;19.92;36.84
37066;BME280;22981;43.080;25.550;2023-02-19T13:51:38;99472.14;;;20.08;36.71
37066;BME280;22981;43.080;25.550;2023-02-19T13:54:12;99482.45;;;20.11;36.64
37066;BME280;22981;43.080;25.550;2023-02-19T14:04:24;99463.08;;;19.78;36.78
37066;BME280;22981;43.080;25.550;2023-02-19T14:14:50;99458.29;;;19.55;37.03
37066;BME280;22981;43.080;25.550;2023-02-19T14:24:58;99455.13;;;19.32;37.49
37066;BME280;22981;43.080;25.550;2023-02-19T14:27:25;99457.08;;;19.14;37.75
37066;BME280;22981;43.080;25.550;2023-02-19T14:29:52;99453.33;;;18.99;38.03
37066;BME280;22981;43.080;25.550;2023-02-19T14:32:19;99463.67;;;18.82;38.26
37066;BME280;22981;43.080;25.550;2023-02-19T14:34:46;99463.92;;;18.65;38.55
37066;BME280;22981;43.080;25.550;2023-02-19T14:37:15;99464.47;;;18.49;38.70
37066;BME280;22981;43.080;25.550;2023-02-19T14:39:42;99462.32;;;18.34;38.95
37066;BME280;22981;43.080;25.550;2023-02-19T14:42:16;99460.66;;;18.20;39.18
37066;BME280;22981;43.080;25.550;2023-02-19T14:44:51;99454.70;;;18.10;39.38
37066;BME280;22981;43.080;25.550;2023-02-19T14:47:18;99449.00;;;17.96;39.55
37066;BME280;22981;43.080;25.550;2023-02-19T14:49:47;99460.35;;;17.83;39.77
37066;BME280;22981;43.080;25.550;2023-02-19T14:52:16;99457.30;;;17.72;39.97
37066;BME280;22981;43.080;25.550;2023-02-19T14:57:27;99451.30;;;17.52;40.27
37066;BME280;22981;43.080;25.550;2023-02-19T14:59:55;99446.09;;;17.43;40.43
37066;BME280;22981;43.080;25.550;2023-02-19T15:02:26;99445.55;;;17.36;40.49
37066;BME280;22981;43.080;25.550;2023-02-19T15:04:53;99440.64;;;17.27;40.60
37066;BME280;22981;43.080;25.550;2023-02-19T15:07:22;99436.81;;;17.21;40.72
37066;BME280;22981;43.080;25.550;2023-02-19T15:09:49;99433.02;;;17.14;40.85
37066;BME280;22981;43.080;25.550;2023-02-19T15:12:24;99431.88;;;17.08;40.92
37066;BME280;22981;43.080;25.550;2023-02-19T15:14:58;99433.19;;;17.00;41.05
37066;BME280;22981;43.080;25.550;2023-02-19T15:17:23;99433.98;;;16.93;41.12
37066;BME280;22981;43.080;25.550;2023-02-19T15:19:48;99388.58;;;16.55;41.24
37066;BME280;22981;43.080;25.550;2023-02-19T15:22:16;99444.45;;;16.82;41.31
37066;BME280;22981;43.080;25.550;2023-02-19T15:24:43;99443.88;;;16.74;41.42
37066;BME280;22981;43.080;25.550;2023-02-19T15:27:14;99444.87;;;16.68;41.53